This is the latest recevied weather packets stored in our database for station/object N8WJW. If no packets are shown the sender has not sent any weather packets the latest 10 day(s).
| Time | Temp. | Humidity | Pressure | Rain* | Wind** | Luminosity | Snow |
|---|---|---|---|---|---|---|---|
| 1778074726 | 7.78° C | 99% | 1011.6 hPa | 0 mm | - | 83 W/m² | - |
| 1778074423 | 7.78° C | 99% | 1011.2 hPa | 0 mm | - | 77 W/m² | - |
| 1778074119 | 7.78° C | 99% | 1011 hPa | 0 mm | - | 82 W/m² | - |
| 1778073817 | 7.22° C | 99% | 1011 hPa | 0 mm | - | 73 W/m² | - |
| 1778073515 | 7.78° C | 99% | 1010.8 hPa | 0 mm | - | 95 W/m² | - |
| 1778073211 | 7.22° C | 99% | 1010.8 hPa | 0 mm | - | 78 W/m² | - |
| 1778072908 | 7.78° C | 99% | 1010.5 hPa | 0 mm | - | 81 W/m² | - |
| 1778072604 | 7.78° C | 99% | 1010.8 hPa | 0 mm | - | 53 W/m² | - |
| 1778072302 | 7.22° C | 99% | 1010.3 hPa | 0 mm | - | 94 W/m² | - |
| 1778072000 | 7.22° C | 99% | 1010.2 hPa | 0 mm | - | 106 W/m² | - |
| 1778071699 | 7.22° C | 99% | 1010.3 hPa | 0 mm | - | 84 W/m² | - |
| 1778071395 | 7.22° C | 99% | 1010.4 hPa | 0 mm | - | 97 W/m² | - |
| 1778071093 | 7.22° C | 99% | 1010.2 hPa | 0 mm | - | 77 W/m² | - |
| 1778070791 | 7.22° C | 99% | 1010.3 hPa | 0 mm | - | 63 W/m² | - |
| 1778070488 | 7.22° C | 99% | 1010.6 hPa | 0 mm | - | 44 W/m² | - |
| 1778070185 | 7.22° C | 99% | 1010.4 hPa | 0 mm | - | 31 W/m² | - |
| 1778069883 | 7.22° C | 99% | 1010.3 hPa | 0 mm | - | 50 W/m² | - |
| 1778069580 | 6.67° C | 99% | 1010.5 hPa | 0 mm | - | 32 W/m² | - |
| 1778069277 | 7.22° C | 99% | 1010.2 hPa | 0 mm | - | 29 W/m² | - |
| 1778068975 | 6.67° C | 99% | 1010.1 hPa | 0 mm | - | 23 W/m² | - |
| 1778068672 | 6.67° C | 99% | 1010.4 hPa | 0 mm | - | 19 W/m² | - |
| 1778068370 | 6.67° C | 99% | 1010.3 hPa | 0 mm | - | 18 W/m² | - |
| 1778068068 | 6.67° C | 99% | 1010.1 hPa | 0 mm | - | 15 W/m² | - |
| 1778067765 | 6.67° C | 99% | 1009.9 hPa | 0 mm | - | 22 W/m² | - |
| 1778067464 | 6.67° C | 99% | 1009.7 hPa | 0 mm | - | 14 W/m² | - |
* Rain latest hour (hover to see other rain measurements)
** Current wind speed in m/s (hover to see current wind gust speed)